createdAt,value
2022-10-06T00:00:53.330Z,2.17
2022-10-06T00:03:33.424Z,2.42
2022-10-06T00:06:10.145Z,2.30
2022-10-06T00:08:46.844Z,2.78
2022-10-06T00:11:28.303Z,2.83
2022-10-06T00:14:03.350Z,3.15
2022-10-06T00:16:40.586Z,3.10
2022-10-06T00:19:16.330Z,2.75
2022-10-06T00:21:51.785Z,2.80
2022-10-06T00:24:28.869Z,3.08
2022-10-06T00:27:04.965Z,2.60
2022-10-06T00:29:39.995Z,2.88
2022-10-06T00:32:17.517Z,3.13
2022-10-06T00:34:57.300Z,2.47
2022-10-06T00:37:35.412Z,2.80
2022-10-06T00:40:12.302Z,3.45
2022-10-06T00:42:59.291Z,2.70
2022-10-06T00:45:38.319Z,3.10
2022-10-06T00:48:20.316Z,3.00
2022-10-06T00:50:57.560Z,2.92
2022-10-06T00:53:34.656Z,3.00
2022-10-06T00:56:09.996Z,2.60
2022-10-06T00:58:45.231Z,3.20
2022-10-06T01:01:19.659Z,2.92
2022-10-06T01:04:03.339Z,2.85
2022-10-06T01:06:49.047Z,3.58
2022-10-06T01:09:27.923Z,3.55
2022-10-06T01:12:06.500Z,3.45
2022-10-06T01:14:43.538Z,3.72
2022-10-06T01:17:23.506Z,3.63
2022-10-06T01:23:00.164Z,3.30
2022-10-06T01:25:36.915Z,3.25
2022-10-06T01:28:16.062Z,3.50
2022-10-06T01:30:55.216Z,3.20
2022-10-06T01:33:31.887Z,3.15
2022-10-06T01:36:07.051Z,3.00
2022-10-06T01:38:44.495Z,2.80
2022-10-06T01:41:19.767Z,3.72
2022-10-06T01:43:55.608Z,3.58
2022-10-06T01:46:30.903Z,3.67
2022-10-06T01:49:06.462Z,3.83
2022-10-06T01:51:42.253Z,3.55
2022-10-06T01:54:19.832Z,3.85
2022-10-06T01:56:55.581Z,3.53
2022-10-06T01:59:31.457Z,3.20
2022-10-06T02:02:06.975Z,2.95
2022-10-06T02:04:42.453Z,4.13
2022-10-06T02:07:18.008Z,3.88
2022-10-06T02:09:56.284Z,3.03
2022-10-06T02:12:31.557Z,3.67
2022-10-06T02:15:08.099Z,3.42
2022-10-06T02:17:43.510Z,3.80
2022-10-06T02:20:20.248Z,3.65
2022-10-06T02:22:58.419Z,3.80
2022-10-06T02:25:35.939Z,3.97
2022-10-06T02:28:11.720Z,3.90
2022-10-06T02:30:47.990Z,4.03
2022-10-06T02:33:24.084Z,3.67
2022-10-06T02:36:00.953Z,3.63
2022-10-06T02:38:36.835Z,3.22
2022-10-06T02:41:17.338Z,2.90
2022-10-06T02:43:56.840Z,3.00
2022-10-06T02:46:33.250Z,2.55
2022-10-06T02:49:09.402Z,2.55
2022-10-06T02:51:45.834Z,2.65
2022-10-06T02:54:21.085Z,2.78
2022-10-06T02:56:58.722Z,3.17
2022-10-06T02:59:34.103Z,2.90
2022-10-06T03:02:10.362Z,2.30
2022-10-06T03:04:45.444Z,2.50
2022-10-06T03:07:21.078Z,2.50
2022-10-06T03:09:58.052Z,2.65
2022-10-06T03:12:36.839Z,2.40
2022-10-06T03:15:14.000Z,2.58
2022-10-06T03:17:52.686Z,2.42
2022-10-06T03:20:34.654Z,2.70
2022-10-06T03:23:13.651Z,2.78
2022-10-06T03:25:49.328Z,2.55
2022-10-06T03:28:29.085Z,3.15
2022-10-06T03:31:07.836Z,2.85
2022-10-06T03:33:43.560Z,2.90
2022-10-06T03:36:20.268Z,2.90
2022-10-06T03:38:57.248Z,2.80
2022-10-06T03:41:33.581Z,2.67
2022-10-06T03:44:13.430Z,2.35
2022-10-06T03:46:49.842Z,2.03
2022-10-06T03:49:25.021Z,2.10
2022-10-06T03:52:01.199Z,1.90
2022-10-06T03:54:41.911Z,1.90
2022-10-06T03:57:17.178Z,2.70
2022-10-06T03:59:54.220Z,2.67
2022-10-06T04:02:30.250Z,3.50
2022-10-06T04:05:05.767Z,2.95
2022-10-06T04:07:40.857Z,2.75
2022-10-06T04:13:04.870Z,2.75
2022-10-06T04:15:43.685Z,2.55
2022-10-06T04:18:20.361Z,2.90
2022-10-06T04:21:03.362Z,2.40
2022-10-06T04:23:40.313Z,2.95
2022-10-06T04:26:19.190Z,2.70
2022-10-06T04:29:02.321Z,2.30
2022-10-06T04:31:39.198Z,2.53
2022-10-06T04:34:18.669Z,2.63
2022-10-06T04:36:55.241Z,2.78
2022-10-06T04:39:30.606Z,2.20
2022-10-06T04:42:11.317Z,2.53
2022-10-06T04:44:48.365Z,2.15
2022-10-06T04:47:24.276Z,2.50
2022-10-06T04:50:00.202Z,2.90
2022-10-06T04:52:35.359Z,2.40
2022-10-06T04:55:12.811Z,2.60
2022-10-06T04:57:48.518Z,2.60
2022-10-06T05:00:30.253Z,2.42
2022-10-06T05:03:06.760Z,2.60
2022-10-06T05:05:42.907Z,2.20
2022-10-06T05:08:18.123Z,2.55
2022-10-06T05:10:57.140Z,2.75
2022-10-06T05:13:32.476Z,2.22
2022-10-06T05:16:15.577Z,2.50
2022-10-06T05:18:53.101Z,2.25
2022-10-06T05:21:31.680Z,2.95
2022-10-06T05:24:08.236Z,2.92
2022-10-06T05:26:47.574Z,2.72
2022-10-06T05:29:23.896Z,2.58
2022-10-06T05:32:02.344Z,2.95
2022-10-06T05:34:37.699Z,2.63
2022-10-06T05:37:19.859Z,2.78
2022-10-06T05:39:55.091Z,2.63
2022-10-06T05:42:30.657Z,3.00
2022-10-06T05:45:07.514Z,2.63
2022-10-06T05:47:46.035Z,2.58
2022-10-06T05:50:21.982Z,2.88
2022-10-06T05:52:59.163Z,2.70
2022-10-06T05:55:34.770Z,3.17
2022-10-06T05:58:14.172Z,2.58
2022-10-06T06:00:52.053Z,3.13
2022-10-06T06:03:30.263Z,3.13
2022-10-06T06:06:05.692Z,3.50
2022-10-06T06:08:40.855Z,3.50
2022-10-06T06:11:16.721Z,3.60
2022-10-06T06:13:53.349Z,3.42
2022-10-06T06:16:27.632Z,3.80
2022-10-06T06:19:05.296Z,3.45
2022-10-06T06:21:42.633Z,3.30
2022-10-06T06:24:18.884Z,2.67
2022-10-06T06:26:54.624Z,3.10
2022-10-06T06:29:31.726Z,3.00
2022-10-06T06:32:07.372Z,2.60
2022-10-06T06:34:44.874Z,3.00
2022-10-06T06:37:20.661Z,2.85
2022-10-06T06:39:56.607Z,3.00
2022-10-06T06:42:33.128Z,3.00
2022-10-06T06:45:26.537Z,3.30
2022-10-06T06:48:09.007Z,3.78
2022-10-06T06:50:48.121Z,3.15
2022-10-06T06:53:25.333Z,3.80
2022-10-06T06:56:04.051Z,2.60
2022-10-06T06:58:43.781Z,3.20
2022-10-06T07:01:20.733Z,2.92
2022-10-06T07:03:59.026Z,3.03
2022-10-06T07:06:43.859Z,2.90
2022-10-06T07:09:19.166Z,3.30
2022-10-06T07:11:58.264Z,2.67
2022-10-06T07:14:34.873Z,3.42
2022-10-06T07:17:28.647Z,2.80
2022-10-06T07:20:20.018Z,2.95
2022-10-06T07:23:14.190Z,2.97
2022-10-06T07:25:49.352Z,3.08
2022-10-06T07:28:25.038Z,3.60
2022-10-06T07:31:01.048Z,3.55
2022-10-06T07:33:38.737Z,3.33
2022-10-06T07:36:14.802Z,3.90
2022-10-06T07:38:52.974Z,3.35
2022-10-06T07:41:28.777Z,3.85
2022-10-06T07:44:10.518Z,3.47
2022-10-06T07:46:46.379Z,3.88
2022-10-06T07:49:25.480Z,4.40
2022-10-06T07:52:01.054Z,3.75
2022-10-06T07:54:38.051Z,2.65
2022-10-06T07:57:37.013Z,3.22
2022-10-06T08:00:12.850Z,3.35
2022-10-06T08:02:49.592Z,3.10
2022-10-06T08:05:25.299Z,3.50
2022-10-06T08:08:00.521Z,3.47
2022-10-06T08:10:37.944Z,4.13
2022-10-06T08:13:14.135Z,4.43
2022-10-06T08:15:51.953Z,4.00
2022-10-06T08:18:45.028Z,3.78
2022-10-06T08:21:22.302Z,3.25
2022-10-06T08:24:16.522Z,3.55
2022-10-06T08:26:55.637Z,3.28
2022-10-06T08:29:35.036Z,3.40
2022-10-06T08:32:11.909Z,3.20
2022-10-06T08:34:47.336Z,3.50
2022-10-06T08:37:25.733Z,3.72
2022-10-06T08:40:01.553Z,3.42
2022-10-06T08:42:44.595Z,3.65
2022-10-06T08:45:26.822Z,3.70
2022-10-06T08:48:07.922Z,3.30
2022-10-06T08:51:02.453Z,3.22
2022-10-06T08:53:42.046Z,3.22
2022-10-06T08:56:22.023Z,3.30
2022-10-06T08:59:05.756Z,3.30
2022-10-06T09:01:49.511Z,3.00
2022-10-06T09:04:30.339Z,3.60
2022-10-06T09:07:11.533Z,3.40
2022-10-06T09:10:01.687Z,3.70
2022-10-06T09:12:41.058Z,4.47
2022-10-06T09:15:35.744Z,4.20
2022-10-06T09:18:20.841Z,3.40
2022-10-06T09:21:01.354Z,3.38
2022-10-06T09:23:53.508Z,3.28
2022-10-06T09:26:33.235Z,3.50
2022-10-06T09:29:09.383Z,3.55
2022-10-06T09:31:53.493Z,3.33
2022-10-06T09:34:37.516Z,3.78
2022-10-06T09:37:14.914Z,3.90
2022-10-06T09:39:52.697Z,3.67
2022-10-06T09:42:31.271Z,3.88
2022-10-06T09:45:07.716Z,3.92
2022-10-06T09:47:49.094Z,3.80
2022-10-06T09:50:27.051Z,4.18
2022-10-06T09:53:19.186Z,5.00
2022-10-06T09:55:56.955Z,4.70
2022-10-06T09:58:35.935Z,5.10
2022-10-06T10:01:13.491Z,5.10
2022-10-06T10:04:18.690Z,4.93
2022-10-06T10:06:50.596Z,4.40
2022-10-06T10:09:35.018Z,4.28
2022-10-06T10:12:33.859Z,4.53
2022-10-06T10:15:31.063Z,4.63
2022-10-06T10:18:08.406Z,4.72
2022-10-06T10:20:54.161Z,4.03
2022-10-06T10:23:33.282Z,3.67
2022-10-06T10:26:30.341Z,3.85
2022-10-06T10:29:38.540Z,3.15
2022-10-06T10:32:21.678Z,3.30
2022-10-06T10:35:13.120Z,3.60
2022-10-06T10:37:55.243Z,3.55
2022-10-06T10:40:44.811Z,3.67
2022-10-06T10:43:31.122Z,4.43
2022-10-06T10:46:12.929Z,3.05
2022-10-06T10:48:52.360Z,3.05
2022-10-06T10:51:33.639Z,2.88
2022-10-06T10:54:15.415Z,2.92
2022-10-06T10:56:52.621Z,3.55
2022-10-06T10:59:31.464Z,3.45
2022-10-06T11:02:16.206Z,2.70
2022-10-06T11:05:05.733Z,2.85
2022-10-06T11:07:50.167Z,2.70
2022-10-06T11:10:30.424Z,4.00
2022-10-06T11:13:19.411Z,3.42
2022-10-06T11:16:23.921Z,3.45
2022-10-06T11:19:24.880Z,3.75
2022-10-06T11:22:07.256Z,2.92
2022-10-06T11:24:52.490Z,3.47
2022-10-06T11:27:45.103Z,3.03
2022-10-06T11:30:31.055Z,2.92
2022-10-06T11:33:17.589Z,3.42
2022-10-06T11:35:54.452Z,3.10
2022-10-06T11:38:36.232Z,3.13
2022-10-06T11:41:17.589Z,3.67
2022-10-06T11:44:02.079Z,3.30
2022-10-06T11:46:45.109Z,3.45
2022-10-06T11:49:41.901Z,3.20
2022-10-06T11:52:55.481Z,3.50
2022-10-06T11:55:31.688Z,3.20
2022-10-06T12:01:33.685Z,3.55
2022-10-06T12:04:24.159Z,3.22
2022-10-06T12:07:06.936Z,3.13
2022-10-06T12:09:53.284Z,3.30
2022-10-06T12:13:05.718Z,2.70
2022-10-06T12:19:26.066Z,3.35
2022-10-06T12:22:10.791Z,3.13
2022-10-06T12:24:52.401Z,3.60
2022-10-06T12:27:54.036Z,3.15
2022-10-06T12:30:34.883Z,3.20
2022-10-06T12:33:20.158Z,2.95
2022-10-06T12:36:07.839Z,3.17
2022-10-06T12:39:06.587Z,3.72
2022-10-06T12:42:01.378Z,3.47
2022-10-06T12:44:40.949Z,3.58
2022-10-06T12:47:21.693Z,3.17
2022-10-06T12:49:58.724Z,3.00
2022-10-06T12:52:52.002Z,3.33
2022-10-06T12:55:48.046Z,3.60
2022-10-06T12:58:24.694Z,3.72
2022-10-06T13:01:05.733Z,3.70
2022-10-06T13:03:41.332Z,3.80
2022-10-06T13:06:17.293Z,3.10
2022-10-06T13:09:10.069Z,2.78
2022-10-06T13:11:45.184Z,3.38
2022-10-06T13:14:20.824Z,3.38
2022-10-06T13:16:58.535Z,2.83
2022-10-06T13:19:38.054Z,2.70
2022-10-06T13:22:17.918Z,2.72
2022-10-06T13:24:54.951Z,2.72
2022-10-06T13:27:30.294Z,2.40
2022-10-06T13:30:23.901Z,2.50
2022-10-06T13:33:01.109Z,2.10
2022-10-06T13:35:37.521Z,2.42
2022-10-06T13:38:14.353Z,2.60
2022-10-06T13:41:06.062Z,2.88
2022-10-06T13:43:46.119Z,2.30
2022-10-06T13:46:24.945Z,2.20
2022-10-06T13:49:02.803Z,2.30
2022-10-06T13:51:38.687Z,2.25
2022-10-06T13:54:31.153Z,2.95
2022-10-06T13:57:08.178Z,2.90
2022-10-06T13:59:44.439Z,2.90
2022-10-06T14:02:36.978Z,2.47
2022-10-06T14:05:34.846Z,2.28
2022-10-06T14:08:23.693Z,2.38
2022-10-06T14:11:00.964Z,2.40
2022-10-06T14:13:43.313Z,2.25
2022-10-06T14:16:26.567Z,2.30
2022-10-06T14:19:03.513Z,2.40
2022-10-06T14:21:43.523Z,2.50
2022-10-06T14:24:30.021Z,2.50
2022-10-06T14:27:07.888Z,2.13
2022-10-06T14:29:44.839Z,2.10
2022-10-06T14:32:21.946Z,1.92
2022-10-06T14:34:57.960Z,2.20
2022-10-06T14:37:35.002Z,2.65
2022-10-06T14:40:12.318Z,2.10
2022-10-06T14:45:24.631Z,2.20
2022-10-06T14:48:01.068Z,2.38
2022-10-06T14:50:36.337Z,2.60
2022-10-06T14:53:12.819Z,2.40
2022-10-06T14:55:50.036Z,3.03
2022-10-06T14:58:26.744Z,2.40
2022-10-06T15:01:09.617Z,2.85
2022-10-06T15:03:48.905Z,2.42
2022-10-06T15:06:40.264Z,3.08
2022-10-06T15:09:16.877Z,2.50
2022-10-06T15:11:52.453Z,2.40
2022-10-06T15:14:30.148Z,2.83
2022-10-06T15:17:07.404Z,2.97
2022-10-06T15:19:42.600Z,2.65
2022-10-06T15:22:19.132Z,2.75
2022-10-06T15:24:54.319Z,2.83
2022-10-06T15:27:44.838Z,2.63
2022-10-06T15:30:21.146Z,2.10
2022-10-06T15:32:58.401Z,2.50
2022-10-06T15:35:34.714Z,2.40
2022-10-06T15:38:20.520Z,2.33
2022-10-06T15:41:11.569Z,2.58
2022-10-06T15:44:01.934Z,1.98
2022-10-06T15:46:43.170Z,2.47
2022-10-06T15:49:23.099Z,2.47
2022-10-06T15:52:01.162Z,2.28
2022-10-06T15:54:39.194Z,2.42
2022-10-06T15:57:20.570Z,2.20
2022-10-06T15:59:56.367Z,2.10
2022-10-06T16:02:36.880Z,1.98
2022-10-06T16:05:30.123Z,2.45
2022-10-06T16:08:05.342Z,2.13
2022-10-06T16:10:40.316Z,2.10
2022-10-06T16:13:16.844Z,2.50
2022-10-06T16:15:59.611Z,2.25
2022-10-06T16:18:35.762Z,2.60
2022-10-06T16:21:13.211Z,2.63
2022-10-06T16:23:48.397Z,2.50
2022-10-06T16:26:25.154Z,2.67
2022-10-06T16:29:00.612Z,2.65
2022-10-06T16:31:36.085Z,2.70
2022-10-06T16:34:11.338Z,3.03
2022-10-06T16:37:07.933Z,2.38
2022-10-06T16:39:43.432Z,2.50
2022-10-06T16:42:21.433Z,3.05
2022-10-06T16:44:56.612Z,2.60
2022-10-06T16:47:31.998Z,2.72
2022-10-06T16:50:07.234Z,2.30
2022-10-06T16:52:44.337Z,2.30
2022-10-06T16:55:19.821Z,2.45
2022-10-06T16:57:55.713Z,2.55
2022-10-06T17:00:31.026Z,2.10
2022-10-06T17:03:07.815Z,2.70
2022-10-06T17:05:44.076Z,2.40
2022-10-06T17:08:21.037Z,2.22
2022-10-06T17:11:06.144Z,2.50
2022-10-06T17:13:44.059Z,2.78
2022-10-06T17:16:21.820Z,2.72
2022-10-06T17:18:57.874Z,2.70
2022-10-06T17:21:54.131Z,2.50
2022-10-06T17:24:32.864Z,2.58
2022-10-06T17:27:09.222Z,2.35
2022-10-06T17:29:46.283Z,2.40
2022-10-06T17:32:21.501Z,2.92
2022-10-06T17:34:56.952Z,2.40
2022-10-06T17:37:32.461Z,2.60
2022-10-06T17:40:10.754Z,2.20
2022-10-06T17:42:46.731Z,2.72
2022-10-06T17:45:22.072Z,2.50
2022-10-06T17:47:57.658Z,3.03
2022-10-06T17:50:33.424Z,3.00
2022-10-06T17:53:12.579Z,2.55
2022-10-06T17:55:50.996Z,2.72
2022-10-06T17:58:26.928Z,2.72
2022-10-06T18:01:07.534Z,2.78
2022-10-06T18:03:44.859Z,2.80
2022-10-06T18:06:21.665Z,3.83
2022-10-06T18:08:57.770Z,3.10
2022-10-06T18:11:39.711Z,3.10
2022-10-06T18:14:16.344Z,3.30
2022-10-06T18:16:56.094Z,3.05
2022-10-06T18:19:32.742Z,2.92
2022-10-06T18:22:11.526Z,2.90
2022-10-06T18:24:47.763Z,3.30
2022-10-06T18:27:25.787Z,3.15
2022-10-06T18:30:01.390Z,2.63
2022-10-06T18:38:33.160Z,3.00
2022-10-06T18:41:30.308Z,2.90
2022-10-06T18:44:08.318Z,2.50
2022-10-06T18:46:59.493Z,2.78
2022-10-06T18:49:35.047Z,2.72
2022-10-06T18:52:10.087Z,2.90
2022-10-06T18:54:46.228Z,2.85
2022-10-06T18:57:26.578Z,2.97
2022-10-06T19:00:05.141Z,2.95
2022-10-06T19:02:44.848Z,2.60
2022-10-06T19:05:22.661Z,3.10
2022-10-06T19:07:58.824Z,3.22
2022-10-06T19:10:33.929Z,3.80
2022-10-06T19:13:09.007Z,3.03
2022-10-06T19:15:56.145Z,3.47
2022-10-06T19:18:38.129Z,3.20
2022-10-06T19:21:16.444Z,3.25
2022-10-06T19:23:51.967Z,3.35
2022-10-06T19:26:27.089Z,3.47
2022-10-06T19:29:05.408Z,3.00
2022-10-06T19:31:43.589Z,3.05
2022-10-06T19:34:21.293Z,2.88
2022-10-06T19:36:57.089Z,2.88
2022-10-06T19:39:34.114Z,3.00
2022-10-06T19:42:25.609Z,3.25
2022-10-06T19:45:01.498Z,3.05
2022-10-06T19:47:38.776Z,3.05
2022-10-06T19:50:14.603Z,3.55
2022-10-06T19:52:49.920Z,3.25
2022-10-06T19:55:25.434Z,2.67
2022-10-06T19:58:02.117Z,2.92
2022-10-06T20:00:37.639Z,2.83
2022-10-06T20:03:16.199Z,2.90
2022-10-06T20:05:52.199Z,2.90
2022-10-06T20:08:29.068Z,2.50
2022-10-06T20:11:09.263Z,3.10
2022-10-06T20:13:46.544Z,2.80
2022-10-06T20:16:23.471Z,2.60
2022-10-06T20:19:00.452Z,2.60
2022-10-06T20:21:36.936Z,2.85
2022-10-06T20:24:15.547Z,2.47
2022-10-06T20:26:52.613Z,2.75
2022-10-06T20:29:30.094Z,3.00
2022-10-06T20:32:06.735Z,2.75
2022-10-06T20:34:43.887Z,2.70
2022-10-06T20:37:19.121Z,3.53
2022-10-06T20:40:10.883Z,3.08
2022-10-06T20:42:50.789Z,2.67
2022-10-06T20:45:28.002Z,2.60
2022-10-06T20:48:03.464Z,2.25
2022-10-06T20:50:42.902Z,2.53
2022-10-06T20:53:18.348Z,7.07
2022-10-06T20:55:57.812Z,2.50
2022-10-06T20:58:33.718Z,2.17
2022-10-06T21:01:13.768Z,2.50
2022-10-06T21:03:50.521Z,2.08
2022-10-06T21:06:29.320Z,2.08
2022-10-06T21:09:05.127Z,2.35
2022-10-06T21:11:42.916Z,2.08
2022-10-06T21:14:19.274Z,2.40
2022-10-06T21:16:55.145Z,2.10
2022-10-06T21:19:31.744Z,2.20
2022-10-06T21:22:09.704Z,2.20
2022-10-06T21:24:45.122Z,1.73
2022-10-06T21:27:20.781Z,2.33
2022-10-06T21:29:56.786Z,2.67
2022-10-06T21:32:34.329Z,2.22
2022-10-06T21:35:15.120Z,2.10
2022-10-06T21:37:52.575Z,3.00
2022-10-06T21:40:28.069Z,3.53
2022-10-06T21:43:04.247Z,3.72
2022-10-06T21:45:42.782Z,3.70
2022-10-06T21:48:20.994Z,2.90
2022-10-06T21:50:59.410Z,3.10
2022-10-06T21:53:37.655Z,2.83
2022-10-06T21:56:12.770Z,2.67
2022-10-06T21:58:48.271Z,2.78
2022-10-06T22:01:24.588Z,3.05
2022-10-06T22:04:00.303Z,2.55
2022-10-06T22:06:36.771Z,3.20
2022-10-06T22:09:17.869Z,2.90
2022-10-06T22:11:56.390Z,3.03
2022-10-06T22:14:31.912Z,2.30
2022-10-06T22:17:07.950Z,2.20
2022-10-06T22:19:43.449Z,2.35
2022-10-06T22:22:18.765Z,1.95
2022-10-06T22:24:55.903Z,1.80
2022-10-06T22:27:31.371Z,1.60
2022-10-06T22:30:06.944Z,1.80
2022-10-06T22:32:42.984Z,1.85
2022-10-06T22:35:20.201Z,2.08
2022-10-06T22:37:55.387Z,2.00
2022-10-06T22:40:32.651Z,2.10
2022-10-06T22:43:09.148Z,2.60
2022-10-06T22:45:44.659Z,2.60
2022-10-06T22:48:20.748Z,2.30
2022-10-06T22:50:56.453Z,2.08
2022-10-06T22:53:32.929Z,2.42
2022-10-06T22:56:10.049Z,2.35
2022-10-06T22:58:46.567Z,2.40
2022-10-06T23:01:25.731Z,2.38
2022-10-06T23:04:01.733Z,2.60
2022-10-06T23:06:36.906Z,2.60
2022-10-06T23:09:12.801Z,2.60
2022-10-06T23:11:50.824Z,3.00
2022-10-06T23:14:26.578Z,2.90
2022-10-06T23:17:02.441Z,2.40
2022-10-06T23:19:39.514Z,2.35
2022-10-06T23:22:14.807Z,2.33
2022-10-06T23:24:53.111Z,2.28
2022-10-06T23:27:31.008Z,2.50
2022-10-06T23:30:06.453Z,2.60
2022-10-06T23:32:42.683Z,2.47
2022-10-06T23:35:17.850Z,2.40
2022-10-06T23:37:54.996Z,2.40
2022-10-06T23:40:30.299Z,2.70
2022-10-06T23:43:10.862Z,2.35
2022-10-06T23:45:47.357Z,2.40
2022-10-06T23:48:24.173Z,2.50
2022-10-06T23:51:04.062Z,2.63
2022-10-06T23:53:39.912Z,2.45
2022-10-06T23:56:15.979Z,2.10
2022-10-06T23:58:55.990Z,2.22
